sensor_id;sensor_type;location;lat;lon;timestamp;P1;durP1;ratioP1;P2;durP2;ratioP2
15651;SDS011;7926;43.576;1.458;2022-07-05T00:00:22;0.60;;;0.60;;
15651;SDS011;7926;43.576;1.458;2022-07-05T00:02:50;0.60;;;0.60;;
15651;SDS011;7926;43.576;1.458;2022-07-05T00:05:18;0.60;;;0.60;;
15651;SDS011;7926;43.576;1.458;2022-07-05T00:07:46;0.63;;;0.63;;
15651;SDS011;7926;43.576;1.458;2022-07-05T00:10:13;0.60;;;0.60;;
15651;SDS011;7926;43.576;1.458;2022-07-05T00:12:40;0.60;;;0.60;;
15651;SDS011;7926;43.576;1.458;2022-07-05T00:15:08;0.50;;;0.50;;
15651;SDS011;7926;43.576;1.458;2022-07-05T00:17:35;0.60;;;0.60;;
15651;SDS011;7926;43.576;1.458;2022-07-05T00:20:03;0.60;;;0.60;;
15651;SDS011;7926;43.576;1.458;2022-07-05T00:22:32;0.60;;;0.60;;
15651;SDS011;7926;43.576;1.458;2022-07-05T00:25:00;0.60;;;0.60;;
15651;SDS011;7926;43.576;1.458;2022-07-05T00:27:27;0.60;;;0.60;;
15651;SDS011;7926;43.576;1.458;2022-07-05T00:29:54;0.60;;;0.60;;
15651;SDS011;7926;43.576;1.458;2022-07-05T00:32:21;0.60;;;0.60;;
15651;SDS011;7926;43.576;1.458;2022-07-05T00:34:49;0.60;;;0.60;;
15651;SDS011;7926;43.576;1.458;2022-07-05T00:37:16;0.57;;;0.57;;
15651;SDS011;7926;43.576;1.458;2022-07-05T00:39:45;0.60;;;0.60;;
15651;SDS011;7926;43.576;1.458;2022-07-05T00:42:12;0.60;;;0.60;;
15651;SDS011;7926;43.576;1.458;2022-07-05T00:44:40;0.60;;;0.60;;
15651;SDS011;7926;43.576;1.458;2022-07-05T00:47:08;0.60;;;0.60;;
15651;SDS011;7926;43.576;1.458;2022-07-05T00:49:36;0.60;;;0.60;;
15651;SDS011;7926;43.576;1.458;2022-07-05T00:52:04;0.60;;;0.60;;
15651;SDS011;7926;43.576;1.458;2022-07-05T00:54:32;0.60;;;0.60;;
15651;SDS011;7926;43.576;1.458;2022-07-05T00:57:02;0.60;;;0.60;;
15651;SDS011;7926;43.576;1.458;2022-07-05T00:59:30;0.60;;;0.60;;
15651;SDS011;7926;43.576;1.458;2022-07-05T01:01:58;0.60;;;0.60;;
15651;SDS011;7926;43.576;1.458;2022-07-05T01:04:25;0.60;;;0.60;;
15651;SDS011;7926;43.576;1.458;2022-07-05T01:06:52;0.60;;;0.60;;
15651;SDS011;7926;43.576;1.458;2022-07-05T01:09:21;0.60;;;0.60;;
15651;SDS011;7926;43.576;1.458;2022-07-05T01:11:49;0.60;;;0.60;;
15651;SDS011;7926;43.576;1.458;2022-07-05T01:14:19;0.70;;;0.70;;
15651;SDS011;7926;43.576;1.458;2022-07-05T01:16:47;0.70;;;0.70;;
15651;SDS011;7926;43.576;1.458;2022-07-05T01:19:15;0.60;;;0.60;;
15651;SDS011;7926;43.576;1.458;2022-07-05T01:21:43;0.70;;;0.70;;
15651;SDS011;7926;43.576;1.458;2022-07-05T01:24:13;0.60;;;0.60;;
15651;SDS011;7926;43.576;1.458;2022-07-05T01:26:41;0.60;;;0.60;;
15651;SDS011;7926;43.576;1.458;2022-07-05T01:29:09;0.70;;;0.70;;
15651;SDS011;7926;43.576;1.458;2022-07-05T01:31:37;0.60;;;0.60;;
15651;SDS011;7926;43.576;1.458;2022-07-05T01:34:04;0.70;;;0.70;;
15651;SDS011;7926;43.576;1.458;2022-07-05T01:36:32;0.60;;;0.60;;
15651;SDS011;7926;43.576;1.458;2022-07-05T01:38:59;0.60;;;0.60;;
15651;SDS011;7926;43.576;1.458;2022-07-05T01:41:28;0.60;;;0.60;;
15651;SDS011;7926;43.576;1.458;2022-07-05T01:43:56;0.70;;;0.70;;
15651;SDS011;7926;43.576;1.458;2022-07-05T01:46:23;0.70;;;0.70;;
15651;SDS011;7926;43.576;1.458;2022-07-05T01:48:51;0.70;;;0.70;;
15651;SDS011;7926;43.576;1.458;2022-07-05T01:51:20;0.70;;;0.70;;
15651;SDS011;7926;43.576;1.458;2022-07-05T01:53:49;0.70;;;0.70;;
15651;SDS011;7926;43.576;1.458;2022-07-05T01:56:18;0.70;;;0.70;;
15651;SDS011;7926;43.576;1.458;2022-07-05T01:58:47;0.67;;;0.67;;
15651;SDS011;7926;43.576;1.458;2022-07-05T02:01:15;0.73;;;0.73;;
15651;SDS011;7926;43.576;1.458;2022-07-05T02:03:43;0.60;;;0.60;;
15651;SDS011;7926;43.576;1.458;2022-07-05T02:06:11;0.70;;;0.70;;
15651;SDS011;7926;43.576;1.458;2022-07-05T02:08:38;0.60;;;0.60;;
15651;SDS011;7926;43.576;1.458;2022-07-05T02:11:06;0.60;;;0.60;;
15651;SDS011;7926;43.576;1.458;2022-07-05T02:13:33;0.70;;;0.70;;
15651;SDS011;7926;43.576;1.458;2022-07-05T02:16:02;0.60;;;0.60;;
15651;SDS011;7926;43.576;1.458;2022-07-05T02:18:29;0.60;;;0.60;;
15651;SDS011;7926;43.576;1.458;2022-07-05T02:20:56;0.60;;;0.60;;
15651;SDS011;7926;43.576;1.458;2022-07-05T02:23:24;0.60;;;0.60;;
15651;SDS011;7926;43.576;1.458;2022-07-05T02:25:51;0.60;;;0.60;;
15651;SDS011;7926;43.576;1.458;2022-07-05T02:28:18;0.60;;;0.60;;
15651;SDS011;7926;43.576;1.458;2022-07-05T02:30:46;0.60;;;0.60;;
15651;SDS011;7926;43.576;1.458;2022-07-05T02:33:15;0.60;;;0.60;;
15651;SDS011;7926;43.576;1.458;2022-07-05T02:35:42;0.60;;;0.60;;
15651;SDS011;7926;43.576;1.458;2022-07-05T02:38:09;0.60;;;0.60;;
15651;SDS011;7926;43.576;1.458;2022-07-05T02:40:37;0.60;;;0.60;;
15651;SDS011;7926;43.576;1.458;2022-07-05T02:43:04;0.60;;;0.60;;
15651;SDS011;7926;43.576;1.458;2022-07-05T02:45:31;0.60;;;0.60;;
15651;SDS011;7926;43.576;1.458;2022-07-05T02:47:59;0.60;;;0.60;;
15651;SDS011;7926;43.576;1.458;2022-07-05T02:50:28;0.60;;;0.60;;
15651;SDS011;7926;43.576;1.458;2022-07-05T02:52:55;0.60;;;0.60;;
15651;SDS011;7926;43.576;1.458;2022-07-05T02:55:23;0.60;;;0.60;;
15651;SDS011;7926;43.576;1.458;2022-07-05T02:57:50;0.60;;;0.60;;
15651;SDS011;7926;43.576;1.458;2022-07-05T03:00:17;0.60;;;0.60;;
15651;SDS011;7926;43.576;1.458;2022-07-05T03:02:44;0.60;;;0.60;;
15651;SDS011;7926;43.576;1.458;2022-07-05T03:05:12;0.70;;;0.70;;
15651;SDS011;7926;43.576;1.458;2022-07-05T03:07:41;0.60;;;0.60;;
15651;SDS011;7926;43.576;1.458;2022-07-05T03:10:08;0.60;;;0.60;;
15651;SDS011;7926;43.576;1.458;2022-07-05T03:12:36;0.63;;;0.63;;
15651;SDS011;7926;43.576;1.458;2022-07-05T03:15:03;0.70;;;0.70;;
15651;SDS011;7926;43.576;1.458;2022-07-05T03:17:31;0.60;;;0.60;;
15651;SDS011;7926;43.576;1.458;2022-07-05T03:19:58;0.60;;;0.60;;
15651;SDS011;7926;43.576;1.458;2022-07-05T03:22:25;0.60;;;0.60;;
15651;SDS011;7926;43.576;1.458;2022-07-05T03:24:54;0.60;;;0.60;;
15651;SDS011;7926;43.576;1.458;2022-07-05T03:27:21;0.50;;;0.50;;
15651;SDS011;7926;43.576;1.458;2022-07-05T03:29:49;0.60;;;0.60;;
15651;SDS011;7926;43.576;1.458;2022-07-05T03:32:16;0.60;;;0.60;;
15651;SDS011;7926;43.576;1.458;2022-07-05T03:34:43;0.60;;;0.60;;
15651;SDS011;7926;43.576;1.458;2022-07-05T03:37:11;0.60;;;0.60;;
15651;SDS011;7926;43.576;1.458;2022-07-05T03:39:38;0.70;;;0.70;;
15651;SDS011;7926;43.576;1.458;2022-07-05T03:42:07;0.60;;;0.60;;
15651;SDS011;7926;43.576;1.458;2022-07-05T03:44:34;0.60;;;0.60;;
15651;SDS011;7926;43.576;1.458;2022-07-05T03:47:02;0.70;;;0.70;;
15651;SDS011;7926;43.576;1.458;2022-07-05T03:49:29;0.60;;;0.60;;
15651;SDS011;7926;43.576;1.458;2022-07-05T03:51:57;0.70;;;0.70;;
15651;SDS011;7926;43.576;1.458;2022-07-05T03:54:24;0.70;;;0.70;;
15651;SDS011;7926;43.576;1.458;2022-07-05T03:56:51;0.60;;;0.60;;
15651;SDS011;7926;43.576;1.458;2022-07-05T03:59:20;0.60;;;0.60;;
15651;SDS011;7926;43.576;1.458;2022-07-05T04:01:48;0.60;;;0.60;;
15651;SDS011;7926;43.576;1.458;2022-07-05T04:04:15;0.60;;;0.60;;
15651;SDS011;7926;43.576;1.458;2022-07-05T04:06:42;0.50;;;0.50;;
15651;SDS011;7926;43.576;1.458;2022-07-05T04:09:10;0.50;;;0.50;;
15651;SDS011;7926;43.576;1.458;2022-07-05T04:11:37;0.50;;;0.50;;
15651;SDS011;7926;43.576;1.458;2022-07-05T04:14:05;0.60;;;0.60;;
15651;SDS011;7926;43.576;1.458;2022-07-05T04:16:35;0.50;;;0.50;;
15651;SDS011;7926;43.576;1.458;2022-07-05T04:19:02;0.50;;;0.50;;
15651;SDS011;7926;43.576;1.458;2022-07-05T04:21:30;0.60;;;0.60;;
15651;SDS011;7926;43.576;1.458;2022-07-05T04:23:57;0.50;;;0.50;;
15651;SDS011;7926;43.576;1.458;2022-07-05T04:26:26;0.50;;;0.50;;
15651;SDS011;7926;43.576;1.458;2022-07-05T04:28:53;0.50;;;0.50;;
15651;SDS011;7926;43.576;1.458;2022-07-05T04:31:21;0.50;;;0.50;;
15651;SDS011;7926;43.576;1.458;2022-07-05T04:33:49;0.50;;;0.50;;
15651;SDS011;7926;43.576;1.458;2022-07-05T04:36:17;0.60;;;0.60;;
15651;SDS011;7926;43.576;1.458;2022-07-05T04:38:44;0.50;;;0.50;;
15651;SDS011;7926;43.576;1.458;2022-07-05T04:41:11;0.50;;;0.50;;
15651;SDS011;7926;43.576;1.458;2022-07-05T04:43:39;0.50;;;0.50;;
15651;SDS011;7926;43.576;1.458;2022-07-05T04:46:06;0.50;;;0.50;;
15651;SDS011;7926;43.576;1.458;2022-07-05T04:48:34;0.60;;;0.60;;
15651;SDS011;7926;43.576;1.458;2022-07-05T04:51:02;0.60;;;0.60;;
15651;SDS011;7926;43.576;1.458;2022-07-05T04:53:30;0.60;;;0.60;;
15651;SDS011;7926;43.576;1.458;2022-07-05T04:55:57;0.53;;;0.53;;
15651;SDS011;7926;43.576;1.458;2022-07-05T04:58:24;0.50;;;0.50;;
15651;SDS011;7926;43.576;1.458;2022-07-05T05:00:51;0.60;;;0.60;;
15651;SDS011;7926;43.576;1.458;2022-07-05T05:03:19;0.50;;;0.50;;
15651;SDS011;7926;43.576;1.458;2022-07-05T05:05:46;0.50;;;0.50;;
15651;SDS011;7926;43.576;1.458;2022-07-05T05:08:15;0.60;;;0.60;;
15651;SDS011;7926;43.576;1.458;2022-07-05T05:10:42;0.50;;;0.50;;
15651;SDS011;7926;43.576;1.458;2022-07-05T05:13:10;0.50;;;0.50;;
15651;SDS011;7926;43.576;1.458;2022-07-05T05:15:37;0.50;;;0.50;;
15651;SDS011;7926;43.576;1.458;2022-07-05T05:18:04;0.53;;;0.53;;
15651;SDS011;7926;43.576;1.458;2022-07-05T05:20:32;0.50;;;0.50;;
15651;SDS011;7926;43.576;1.458;2022-07-05T05:22:59;0.50;;;0.50;;
15651;SDS011;7926;43.576;1.458;2022-07-05T05:25:28;0.50;;;0.50;;
15651;SDS011;7926;43.576;1.458;2022-07-05T05:27:55;0.50;;;0.50;;
15651;SDS011;7926;43.576;1.458;2022-07-05T05:30:23;0.60;;;0.60;;
15651;SDS011;7926;43.576;1.458;2022-07-05T05:32:53;0.50;;;0.50;;
15651;SDS011;7926;43.576;1.458;2022-07-05T05:35:20;0.60;;;0.60;;
15651;SDS011;7926;43.576;1.458;2022-07-05T05:37:49;0.50;;;0.50;;
15651;SDS011;7926;43.576;1.458;2022-07-05T05:40:17;0.50;;;0.50;;
15651;SDS011;7926;43.576;1.458;2022-07-05T05:42:45;0.60;;;0.60;;
15651;SDS011;7926;43.576;1.458;2022-07-05T05:45:13;0.50;;;0.50;;
15651;SDS011;7926;43.576;1.458;2022-07-05T05:47:44;0.50;;;0.50;;
15651;SDS011;7926;43.576;1.458;2022-07-05T05:50:12;0.50;;;0.50;;
15651;SDS011;7926;43.576;1.458;2022-07-05T05:52:39;0.50;;;0.50;;
15651;SDS011;7926;43.576;1.458;2022-07-05T05:55:07;0.60;;;0.60;;
15651;SDS011;7926;43.576;1.458;2022-07-05T05:57:34;0.50;;;0.50;;
15651;SDS011;7926;43.576;1.458;2022-07-05T06:00:04;0.50;;;0.50;;
15651;SDS011;7926;43.576;1.458;2022-07-05T06:02:32;0.50;;;0.50;;
15651;SDS011;7926;43.576;1.458;2022-07-05T06:04:59;0.50;;;0.50;;
15651;SDS011;7926;43.576;1.458;2022-07-05T06:07:27;0.50;;;0.50;;
15651;SDS011;7926;43.576;1.458;2022-07-05T06:09:54;0.50;;;0.50;;
15651;SDS011;7926;43.576;1.458;2022-07-05T06:12:21;0.40;;;0.40;;
15651;SDS011;7926;43.576;1.458;2022-07-05T06:14:49;0.50;;;0.50;;
15651;SDS011;7926;43.576;1.458;2022-07-05T06:17:17;0.50;;;0.50;;
15651;SDS011;7926;43.576;1.458;2022-07-05T06:19:45;0.43;;;0.43;;
15651;SDS011;7926;43.576;1.458;2022-07-05T06:22:12;0.50;;;0.50;;
15651;SDS011;7926;43.576;1.458;2022-07-05T06:24:39;0.50;;;0.50;;
15651;SDS011;7926;43.576;1.458;2022-07-05T06:27:07;0.50;;;0.50;;
15651;SDS011;7926;43.576;1.458;2022-07-05T06:29:34;0.50;;;0.50;;
15651;SDS011;7926;43.576;1.458;2022-07-05T06:32:01;0.50;;;0.50;;
15651;SDS011;7926;43.576;1.458;2022-07-05T06:34:30;0.57;;;0.57;;
15651;SDS011;7926;43.576;1.458;2022-07-05T06:36:57;0.50;;;0.50;;
15651;SDS011;7926;43.576;1.458;2022-07-05T06:39:25;0.60;;;0.60;;
15651;SDS011;7926;43.576;1.458;2022-07-05T06:41:52;0.50;;;0.50;;
15651;SDS011;7926;43.576;1.458;2022-07-05T06:44:19;0.50;;;0.50;;
15651;SDS011;7926;43.576;1.458;2022-07-05T06:46:46;0.50;;;0.50;;
15651;SDS011;7926;43.576;1.458;2022-07-05T06:49:14;0.60;;;0.60;;
15651;SDS011;7926;43.576;1.458;2022-07-05T06:51:43;0.50;;;0.50;;
15651;SDS011;7926;43.576;1.458;2022-07-05T06:54:10;0.50;;;0.50;;
15651;SDS011;7926;43.576;1.458;2022-07-05T06:56:37;0.50;;;0.50;;
15651;SDS011;7926;43.576;1.458;2022-07-05T06:59:05;0.50;;;0.50;;
15651;SDS011;7926;43.576;1.458;2022-07-05T07:01:32;0.43;;;0.43;;
15651;SDS011;7926;43.576;1.458;2022-07-05T07:03:59;0.50;;;0.50;;
15651;SDS011;7926;43.576;1.458;2022-07-05T07:06:28;0.50;;;0.50;;
15651;SDS011;7926;43.576;1.458;2022-07-05T07:08:57;0.50;;;0.50;;
15651;SDS011;7926;43.576;1.458;2022-07-05T07:11:42;0.50;;;0.50;;
15651;SDS011;7926;43.576;1.458;2022-07-05T07:14:09;0.50;;;0.50;;
15651;SDS011;7926;43.576;1.458;2022-07-05T07:16:37;0.40;;;0.40;;
15651;SDS011;7926;43.576;1.458;2022-07-05T07:19:04;0.40;;;0.40;;
15651;SDS011;7926;43.576;1.458;2022-07-05T07:21:32;0.40;;;0.40;;
15651;SDS011;7926;43.576;1.458;2022-07-05T07:24:01;0.40;;;0.40;;
15651;SDS011;7926;43.576;1.458;2022-07-05T07:26:28;0.43;;;0.43;;
15651;SDS011;7926;43.576;1.458;2022-07-05T07:29:16;0.40;;;0.40;;
15651;SDS011;7926;43.576;1.458;2022-07-05T07:31:44;0.43;;;0.43;;
15651;SDS011;7926;43.576;1.458;2022-07-05T07:34:11;0.40;;;0.40;;
15651;SDS011;7926;43.576;1.458;2022-07-05T07:36:39;0.40;;;0.40;;
15651;SDS011;7926;43.576;1.458;2022-07-05T07:39:08;0.40;;;0.40;;
15651;SDS011;7926;43.576;1.458;2022-07-05T07:41:36;0.50;;;0.50;;
15651;SDS011;7926;43.576;1.458;2022-07-05T07:44:04;0.50;;;0.50;;
15651;SDS011;7926;43.576;1.458;2022-07-05T07:46:31;0.50;;;0.50;;
15651;SDS011;7926;43.576;1.458;2022-07-05T07:48:59;0.50;;;0.50;;
15651;SDS011;7926;43.576;1.458;2022-07-05T07:51:26;0.50;;;0.50;;
15651;SDS011;7926;43.576;1.458;2022-07-05T07:53:54;0.50;;;0.50;;
15651;SDS011;7926;43.576;1.458;2022-07-05T07:56:22;0.57;;;0.57;;
15651;SDS011;7926;43.576;1.458;2022-07-05T07:58:50;0.60;;;0.60;;
15651;SDS011;7926;43.576;1.458;2022-07-05T08:01:17;0.50;;;0.50;;
15651;SDS011;7926;43.576;1.458;2022-07-05T08:03:45;0.60;;;0.60;;
15651;SDS011;7926;43.576;1.458;2022-07-05T08:06:13;0.50;;;0.50;;
15651;SDS011;7926;43.576;1.458;2022-07-05T08:08:41;0.50;;;0.50;;
15651;SDS011;7926;43.576;1.458;2022-07-05T08:11:09;0.50;;;0.50;;
15651;SDS011;7926;43.576;1.458;2022-07-05T08:13:39;0.40;;;0.40;;
15651;SDS011;7926;43.576;1.458;2022-07-05T08:16:07;0.50;;;0.50;;
15651;SDS011;7926;43.576;1.458;2022-07-05T08:18:35;0.40;;;0.40;;
15651;SDS011;7926;43.576;1.458;2022-07-05T08:21:16;0.50;;;0.50;;
15651;SDS011;7926;43.576;1.458;2022-07-05T08:24:00;0.50;;;0.50;;
15651;SDS011;7926;43.576;1.458;2022-07-05T08:26:28;0.50;;;0.50;;
15651;SDS011;7926;43.576;1.458;2022-07-05T08:28:58;0.50;;;0.50;;
15651;SDS011;7926;43.576;1.458;2022-07-05T08:31:26;0.50;;;0.50;;
15651;SDS011;7926;43.576;1.458;2022-07-05T08:33:54;0.50;;;0.50;;
15651;SDS011;7926;43.576;1.458;2022-07-05T08:36:23;0.50;;;0.50;;
15651;SDS011;7926;43.576;1.458;2022-07-05T08:38:50;0.50;;;0.50;;
15651;SDS011;7926;43.576;1.458;2022-07-05T08:41:18;0.50;;;0.50;;
15651;SDS011;7926;43.576;1.458;2022-07-05T08:43:46;0.50;;;0.50;;
15651;SDS011;7926;43.576;1.458;2022-07-05T08:46:15;0.50;;;0.50;;
15651;SDS011;7926;43.576;1.458;2022-07-05T08:48:43;0.50;;;0.50;;
15651;SDS011;7926;43.576;1.458;2022-07-05T08:51:14;0.50;;;0.50;;
15651;SDS011;7926;43.576;1.458;2022-07-05T08:53:42;0.50;;;0.50;;
15651;SDS011;7926;43.576;1.458;2022-07-05T08:56:10;0.50;;;0.50;;
15651;SDS011;7926;43.576;1.458;2022-07-05T08:58:38;0.50;;;0.50;;
15651;SDS011;7926;43.576;1.458;2022-07-05T09:01:05;0.50;;;0.50;;
15651;SDS011;7926;43.576;1.458;2022-07-05T09:03:36;0.40;;;0.40;;
15651;SDS011;7926;43.576;1.458;2022-07-05T09:06:06;0.50;;;0.50;;
15651;SDS011;7926;43.576;1.458;2022-07-05T09:08:35;0.50;;;0.50;;
15651;SDS011;7926;43.576;1.458;2022-07-05T09:11:14;0.50;;;0.50;;
15651;SDS011;7926;43.576;1.458;2022-07-05T09:13:42;0.40;;;0.40;;
15651;SDS011;7926;43.576;1.458;2022-07-05T09:16:10;0.50;;;0.50;;
15651;SDS011;7926;43.576;1.458;2022-07-05T09:18:39;0.50;;;0.50;;
15651;SDS011;7926;43.576;1.458;2022-07-05T09:21:16;0.52;;;0.52;;
15651;SDS011;7926;43.576;1.458;2022-07-05T09:23:44;0.50;;;0.50;;
15651;SDS011;7926;43.576;1.458;2022-07-05T09:26:11;0.50;;;0.50;;
15651;SDS011;7926;43.576;1.458;2022-07-05T09:28:51;0.50;;;0.50;;
15651;SDS011;7926;43.576;1.458;2022-07-05T09:31:25;0.50;;;0.50;;
15651;SDS011;7926;43.576;1.458;2022-07-05T09:33:55;0.50;;;0.50;;
15651;SDS011;7926;43.576;1.458;2022-07-05T09:36:23;0.50;;;0.50;;
15651;SDS011;7926;43.576;1.458;2022-07-05T09:38:51;0.50;;;0.50;;
15651;SDS011;7926;43.576;1.458;2022-07-05T09:41:18;0.50;;;0.50;;
15651;SDS011;7926;43.576;1.458;2022-07-05T09:43:45;0.50;;;0.50;;
15651;SDS011;7926;43.576;1.458;2022-07-05T09:46:13;0.50;;;0.50;;
15651;SDS011;7926;43.576;1.458;2022-07-05T09:48:50;0.50;;;0.50;;
15651;SDS011;7926;43.576;1.458;2022-07-05T09:51:20;0.50;;;0.50;;
15651;SDS011;7926;43.576;1.458;2022-07-05T09:53:47;0.50;;;0.50;;
15651;SDS011;7926;43.576;1.458;2022-07-05T09:56:15;0.50;;;0.50;;
15651;SDS011;7926;43.576;1.458;2022-07-05T09:58:42;0.50;;;0.50;;
15651;SDS011;7926;43.576;1.458;2022-07-05T10:01:22;0.50;;;0.50;;
15651;SDS011;7926;43.576;1.458;2022-07-05T10:03:53;0.50;;;0.50;;
15651;SDS011;7926;43.576;1.458;2022-07-05T10:06:22;0.50;;;0.50;;
15651;SDS011;7926;43.576;1.458;2022-07-05T10:08:50;0.47;;;0.47;;
15651;SDS011;7926;43.576;1.458;2022-07-05T10:11:18;0.43;;;0.43;;
15651;SDS011;7926;43.576;1.458;2022-07-05T10:13:45;0.50;;;0.50;;
15651;SDS011;7926;43.576;1.458;2022-07-05T10:16:14;0.50;;;0.50;;
15651;SDS011;7926;43.576;1.458;2022-07-05T10:18:42;0.40;;;0.40;;
15651;SDS011;7926;43.576;1.458;2022-07-05T10:21:11;0.50;;;0.50;;
15651;SDS011;7926;43.576;1.458;2022-07-05T10:23:40;0.50;;;0.50;;
15651;SDS011;7926;43.576;1.458;2022-07-05T10:26:10;0.57;;;0.57;;
15651;SDS011;7926;43.576;1.458;2022-07-05T10:28:38;0.40;;;0.40;;
15651;SDS011;7926;43.576;1.458;2022-07-05T10:31:06;0.50;;;0.50;;
15651;SDS011;7926;43.576;1.458;2022-07-05T10:33:34;0.50;;;0.50;;
15651;SDS011;7926;43.576;1.458;2022-07-05T10:36:02;0.50;;;0.50;;
15651;SDS011;7926;43.576;1.458;2022-07-05T10:38:31;0.50;;;0.50;;
15651;SDS011;7926;43.576;1.458;2022-07-05T10:41:04;0.50;;;0.50;;
15651;SDS011;7926;43.576;1.458;2022-07-05T10:43:32;0.50;;;0.50;;
15651;SDS011;7926;43.576;1.458;2022-07-05T10:45:59;0.50;;;0.50;;
15651;SDS011;7926;43.576;1.458;2022-07-05T10:48:28;0.52;;;0.52;;
15651;SDS011;7926;43.576;1.458;2022-07-05T10:50:55;0.52;;;0.52;;
15651;SDS011;7926;43.576;1.458;2022-07-05T10:53:24;0.50;;;0.50;;
15651;SDS011;7926;43.576;1.458;2022-07-05T10:55:52;0.52;;;0.52;;
15651;SDS011;7926;43.576;1.458;2022-07-05T10:58:22;0.50;;;0.50;;
15651;SDS011;7926;43.576;1.458;2022-07-05T11:03:36;0.50;;;0.50;;
15651;SDS011;7926;43.576;1.458;2022-07-05T11:06:04;0.50;;;0.50;;
15651;SDS011;7926;43.576;1.458;2022-07-05T11:08:40;0.50;;;0.50;;
15651;SDS011;7926;43.576;1.458;2022-07-05T11:11:28;0.60;;;0.60;;
15651;SDS011;7926;43.576;1.458;2022-07-05T11:13:59;0.50;;;0.50;;
15651;SDS011;7926;43.576;1.458;2022-07-05T11:16:47;0.50;;;0.50;;
15651;SDS011;7926;43.576;1.458;2022-07-05T11:19:18;0.50;;;0.50;;
15651;SDS011;7926;43.576;1.458;2022-07-05T11:22:05;0.50;;;0.50;;
15651;SDS011;7926;43.576;1.458;2022-07-05T11:24:57;0.60;;;0.60;;
15651;SDS011;7926;43.576;1.458;2022-07-05T11:33:30;0.70;;;0.70;;
15651;SDS011;7926;43.576;1.458;2022-07-05T11:36:20;0.63;;;0.63;;
15651;SDS011;7926;43.576;1.458;2022-07-05T11:39:13;0.70;;;0.70;;
15651;SDS011;7926;43.576;1.458;2022-07-05T11:41:46;0.60;;;0.60;;
15651;SDS011;7926;43.576;1.458;2022-07-05T11:44:16;0.60;;;0.60;;
15651;SDS011;7926;43.576;1.458;2022-07-05T11:47:32;0.70;;;0.70;;
15651;SDS011;7926;43.576;1.458;2022-07-05T11:53:10;0.60;;;0.60;;
15651;SDS011;7926;43.576;1.458;2022-07-05T11:55:55;0.70;;;0.70;;
15651;SDS011;7926;43.576;1.458;2022-07-05T11:58:31;0.70;;;0.70;;
15651;SDS011;7926;43.576;1.458;2022-07-05T12:00:58;0.60;;;0.60;;
15651;SDS011;7926;43.576;1.458;2022-07-05T12:03:27;0.70;;;0.70;;
15651;SDS011;7926;43.576;1.458;2022-07-05T12:05:54;0.60;;;0.60;;
15651;SDS011;7926;43.576;1.458;2022-07-05T12:08:23;0.70;;;0.70;;
15651;SDS011;7926;43.576;1.458;2022-07-05T12:10:51;0.70;;;0.70;;
15651;SDS011;7926;43.576;1.458;2022-07-05T12:13:42;0.70;;;0.70;;
15651;SDS011;7926;43.576;1.458;2022-07-05T12:16:10;0.70;;;0.70;;
15651;SDS011;7926;43.576;1.458;2022-07-05T12:18:48;0.80;;;0.80;;
15651;SDS011;7926;43.576;1.458;2022-07-05T12:21:16;0.80;;;0.80;;
15651;SDS011;7926;43.576;1.458;2022-07-05T12:23:47;0.70;;;0.70;;
15651;SDS011;7926;43.576;1.458;2022-07-05T12:26:15;0.65;;;0.65;;
15651;SDS011;7926;43.576;1.458;2022-07-05T12:28:43;0.77;;;0.77;;
15651;SDS011;7926;43.576;1.458;2022-07-05T12:31:14;0.60;;;0.60;;
15651;SDS011;7926;43.576;1.458;2022-07-05T12:33:41;0.70;;;0.70;;
15651;SDS011;7926;43.576;1.458;2022-07-05T12:36:10;0.70;;;0.70;;
15651;SDS011;7926;43.576;1.458;2022-07-05T12:38:38;0.80;;;0.80;;
15651;SDS011;7926;43.576;1.458;2022-07-05T12:41:07;0.80;;;0.80;;
15651;SDS011;7926;43.576;1.458;2022-07-05T12:43:47;0.70;;;0.70;;
15651;SDS011;7926;43.576;1.458;2022-07-05T12:46:14;0.77;;;0.77;;
15651;SDS011;7926;43.576;1.458;2022-07-05T12:48:42;0.70;;;0.70;;
15651;SDS011;7926;43.576;1.458;2022-07-05T12:51:10;0.75;;;0.75;;
15651;SDS011;7926;43.576;1.458;2022-07-05T12:53:44;0.80;;;0.80;;
15651;SDS011;7926;43.576;1.458;2022-07-05T12:56:30;0.80;;;0.80;;
15651;SDS011;7926;43.576;1.458;2022-07-05T12:59:15;0.70;;;0.70;;
15651;SDS011;7926;43.576;1.458;2022-07-05T13:01:43;0.70;;;0.70;;
15651;SDS011;7926;43.576;1.458;2022-07-05T13:04:11;0.80;;;0.80;;
15651;SDS011;7926;43.576;1.458;2022-07-05T13:06:43;0.70;;;0.70;;
15651;SDS011;7926;43.576;1.458;2022-07-05T13:09:10;0.70;;;0.70;;
15651;SDS011;7926;43.576;1.458;2022-07-05T13:11:40;0.70;;;0.70;;
15651;SDS011;7926;43.576;1.458;2022-07-05T13:14:08;0.70;;;0.70;;
15651;SDS011;7926;43.576;1.458;2022-07-05T13:16:35;0.70;;;0.70;;
15651;SDS011;7926;43.576;1.458;2022-07-05T13:19:06;0.80;;;0.80;;
15651;SDS011;7926;43.576;1.458;2022-07-05T13:21:34;0.65;;;0.65;;
15651;SDS011;7926;43.576;1.458;2022-07-05T13:24:01;0.70;;;0.70;;
15651;SDS011;7926;43.576;1.458;2022-07-05T13:26:29;0.80;;;0.80;;
15651;SDS011;7926;43.576;1.458;2022-07-05T13:28:58;0.77;;;0.77;;
15651;SDS011;7926;43.576;1.458;2022-07-05T13:31:25;0.70;;;0.70;;
15651;SDS011;7926;43.576;1.458;2022-07-05T13:33:55;0.80;;;0.80;;
15651;SDS011;7926;43.576;1.458;2022-07-05T13:36:23;0.80;;;0.80;;
15651;SDS011;7926;43.576;1.458;2022-07-05T13:38:50;0.80;;;0.80;;
15651;SDS011;7926;43.576;1.458;2022-07-05T13:41:18;0.75;;;0.75;;
15651;SDS011;7926;43.576;1.458;2022-07-05T13:43:45;0.80;;;0.80;;
15651;SDS011;7926;43.576;1.458;2022-07-05T13:46:14;0.73;;;0.73;;
15651;SDS011;7926;43.576;1.458;2022-07-05T13:48:41;0.80;;;0.80;;
15651;SDS011;7926;43.576;1.458;2022-07-05T13:51:08;0.70;;;0.70;;
15651;SDS011;7926;43.576;1.458;2022-07-05T13:53:36;0.70;;;0.70;;
15651;SDS011;7926;43.576;1.458;2022-07-05T13:56:03;0.80;;;0.80;;
15651;SDS011;7926;43.576;1.458;2022-07-05T13:58:31;0.80;;;0.80;;
15651;SDS011;7926;43.576;1.458;2022-07-05T14:00:58;0.70;;;0.70;;
15651;SDS011;7926;43.576;1.458;2022-07-05T14:03:27;0.70;;;0.70;;
15651;SDS011;7926;43.576;1.458;2022-07-05T14:05:54;0.70;;;0.70;;
15651;SDS011;7926;43.576;1.458;2022-07-05T14:08:22;0.70;;;0.70;;
15651;SDS011;7926;43.576;1.458;2022-07-05T14:10:50;0.70;;;0.70;;
15651;SDS011;7926;43.576;1.458;2022-07-05T14:13:18;0.70;;;0.70;;
15651;SDS011;7926;43.576;1.458;2022-07-05T14:15:45;0.80;;;0.80;;
15651;SDS011;7926;43.576;1.458;2022-07-05T14:18:13;0.80;;;0.80;;
15651;SDS011;7926;43.576;1.458;2022-07-05T14:20:42;0.70;;;0.70;;
15651;SDS011;7926;43.576;1.458;2022-07-05T14:23:09;0.70;;;0.70;;
15651;SDS011;7926;43.576;1.458;2022-07-05T14:25:37;0.70;;;0.70;;
15651;SDS011;7926;43.576;1.458;2022-07-05T14:28:05;0.80;;;0.80;;
15651;SDS011;7926;43.576;1.458;2022-07-05T14:30:34;0.70;;;0.70;;
15651;SDS011;7926;43.576;1.458;2022-07-05T14:33:01;0.70;;;0.70;;
15651;SDS011;7926;43.576;1.458;2022-07-05T14:35:29;0.70;;;0.70;;
15651;SDS011;7926;43.576;1.458;2022-07-05T14:37:57;0.70;;;0.70;;
15651;SDS011;7926;43.576;1.458;2022-07-05T14:40:26;0.88;;;0.88;;
15651;SDS011;7926;43.576;1.458;2022-07-05T14:42:55;0.77;;;0.77;;
15651;SDS011;7926;43.576;1.458;2022-07-05T14:45:24;0.80;;;0.80;;
15651;SDS011;7926;43.576;1.458;2022-07-05T14:47:51;0.70;;;0.70;;
15651;SDS011;7926;43.576;1.458;2022-07-05T14:50:19;0.80;;;0.80;;
15651;SDS011;7926;43.576;1.458;2022-07-05T14:52:47;0.70;;;0.70;;
15651;SDS011;7926;43.576;1.458;2022-07-05T14:55:17;0.80;;;0.80;;
15651;SDS011;7926;43.576;1.458;2022-07-05T14:57:44;0.80;;;0.80;;
15651;SDS011;7926;43.576;1.458;2022-07-05T15:00:13;0.80;;;0.80;;
15651;SDS011;7926;43.576;1.458;2022-07-05T15:02:40;0.80;;;0.80;;
15651;SDS011;7926;43.576;1.458;2022-07-05T15:05:08;0.70;;;0.70;;
15651;SDS011;7926;43.576;1.458;2022-07-05T15:07:36;0.80;;;0.80;;
15651;SDS011;7926;43.576;1.458;2022-07-05T15:10:04;0.80;;;0.80;;
15651;SDS011;7926;43.576;1.458;2022-07-05T15:12:33;0.80;;;0.80;;
15651;SDS011;7926;43.576;1.458;2022-07-05T15:15:00;0.90;;;0.90;;
15651;SDS011;7926;43.576;1.458;2022-07-05T15:17:28;0.80;;;0.80;;
15651;SDS011;7926;43.576;1.458;2022-07-05T15:19:55;0.90;;;0.90;;
15651;SDS011;7926;43.576;1.458;2022-07-05T15:22:23;0.82;;;0.82;;